sensor_id;sensor_type;location;lat;lon;timestamp;temperature;humidity
77741;DHT22;66919;51.006;4.630;2024-01-30T00:01:37;10.60;77.40
77741;DHT22;66919;51.006;4.630;2024-01-30T00:04:03;10.70;76.70
77741;DHT22;66919;51.006;4.630;2024-01-30T00:06:29;10.60;77.20
77741;DHT22;66919;51.006;4.630;2024-01-30T00:08:54;10.60;76.90
77741;DHT22;66919;51.006;4.630;2024-01-30T00:11:20;10.70;76.90
77741;DHT22;66919;51.006;4.630;2024-01-30T00:13:46;10.60;76.90
77741;DHT22;66919;51.006;4.630;2024-01-30T00:16:22;10.70;76.80
77741;DHT22;66919;51.006;4.630;2024-01-30T00:18:48;10.60;77.20
77741;DHT22;66919;51.006;4.630;2024-01-30T00:21:14;10.50;77.50
77741;DHT22;66919;51.006;4.630;2024-01-30T00:23:39;10.60;77.30
77741;DHT22;66919;51.006;4.630;2024-01-30T00:26:05;10.70;76.70
77741;DHT22;66919;51.006;4.630;2024-01-30T00:28:31;10.90;76.00
77741;DHT22;66919;51.006;4.630;2024-01-30T00:30:57;11.00;75.30
77741;DHT22;66919;51.006;4.630;2024-01-30T00:33:22;10.90;75.40
77741;DHT22;66919;51.006;4.630;2024-01-30T00:35:48;10.80;76.00
77741;DHT22;66919;51.006;4.630;2024-01-30T00:38:14;10.70;76.60
77741;DHT22;66919;51.006;4.630;2024-01-30T00:40:39;10.90;76.00
77741;DHT22;66919;51.006;4.630;2024-01-30T00:43:05;11.00;75.40
77741;DHT22;66919;51.006;4.630;2024-01-30T00:45:31;10.90;75.80
77741;DHT22;66919;51.006;4.630;2024-01-30T00:47:56;10.80;76.20
77741;DHT22;66919;51.006;4.630;2024-01-30T00:50:22;10.80;76.00
77741;DHT22;66919;51.006;4.630;2024-01-30T00:52:47;10.80;76.50
77741;DHT22;66919;51.006;4.630;2024-01-30T00:55:13;10.90;75.90
77741;DHT22;66919;51.006;4.630;2024-01-30T00:57:39;11.00;75.50
77741;DHT22;66919;51.006;4.630;2024-01-30T01:00:06;10.80;76.20
77741;DHT22;66919;51.006;4.630;2024-01-30T01:02:37;10.80;76.50
77741;DHT22;66919;51.006;4.630;2024-01-30T01:05:04;10.80;76.50
77741;DHT22;66919;51.006;4.630;2024-01-30T01:07:30;10.90;76.30
77741;DHT22;66919;51.006;4.630;2024-01-30T01:09:56;11.00;75.60
77741;DHT22;66919;51.006;4.630;2024-01-30T01:12:21;11.00;75.80
77741;DHT22;66919;51.006;4.630;2024-01-30T01:14:47;11.00;75.40
77741;DHT22;66919;51.006;4.630;2024-01-30T01:17:13;11.20;74.70
77741;DHT22;66919;51.006;4.630;2024-01-30T01:19:38;11.10;75.20
77741;DHT22;66919;51.006;4.630;2024-01-30T01:22:04;11.10;75.10
77741;DHT22;66919;51.006;4.630;2024-01-30T01:24:31;10.90;76.00
77741;DHT22;66919;51.006;4.630;2024-01-30T01:26:58;10.90;76.00
77741;DHT22;66919;51.006;4.630;2024-01-30T01:29:24;11.10;75.00
77741;DHT22;66919;51.006;4.630;2024-01-30T01:31:55;11.00;75.60
77741;DHT22;66919;51.006;4.630;2024-01-30T01:34:21;10.80;76.50
77741;DHT22;66919;51.006;4.630;2024-01-30T01:36:47;10.90;76.30
77741;DHT22;66919;51.006;4.630;2024-01-30T01:39:12;10.90;76.00
77741;DHT22;66919;51.006;4.630;2024-01-30T01:41:38;11.10;75.50
77741;DHT22;66919;51.006;4.630;2024-01-30T01:44:04;11.20;75.10
77741;DHT22;66919;51.006;4.630;2024-01-30T01:46:33;11.20;74.80
77741;DHT22;66919;51.006;4.630;2024-01-30T01:48:59;11.30;74.50
77741;DHT22;66919;51.006;4.630;2024-01-30T01:51:27;11.10;75.40
77741;DHT22;66919;51.006;4.630;2024-01-30T01:53:54;11.20;74.80
77741;DHT22;66919;51.006;4.630;2024-01-30T01:56:24;11.10;75.30
77741;DHT22;66919;51.006;4.630;2024-01-30T01:58:51;11.10;75.30
77741;DHT22;66919;51.006;4.630;2024-01-30T02:01:20;11.20;75.10
77741;DHT22;66919;51.006;4.630;2024-01-30T02:03:46;11.00;75.90
77741;DHT22;66919;51.006;4.630;2024-01-30T02:06:14;11.00;76.10
77741;DHT22;66919;51.006;4.630;2024-01-30T02:08:40;10.90;76.30
77741;DHT22;66919;51.006;4.630;2024-01-30T02:11:06;10.90;76.50
77741;DHT22;66919;51.006;4.630;2024-01-30T02:13:31;10.90;76.40
77741;DHT22;66919;51.006;4.630;2024-01-30T02:15:57;10.80;77.00
77741;DHT22;66919;51.006;4.630;2024-01-30T02:18:23;10.70;77.00
77741;DHT22;66919;51.006;4.630;2024-01-30T02:20:48;10.60;77.70
77741;DHT22;66919;51.006;4.630;2024-01-30T02:23:15;10.50;78.40
77741;DHT22;66919;51.006;4.630;2024-01-30T02:25:42;10.50;78.20
77741;DHT22;66919;51.006;4.630;2024-01-30T02:28:11;10.40;78.70
77741;DHT22;66919;51.006;4.630;2024-01-30T02:30:38;10.30;79.20
77741;DHT22;66919;51.006;4.630;2024-01-30T02:33:04;10.40;79.10
77741;DHT22;66919;51.006;4.630;2024-01-30T02:35:29;10.30;79.10
77741;DHT22;66919;51.006;4.630;2024-01-30T02:37:55;10.30;79.50
77741;DHT22;66919;51.006;4.630;2024-01-30T02:40:20;10.40;79.10
77741;DHT22;66919;51.006;4.630;2024-01-30T02:42:46;10.40;78.90
77741;DHT22;66919;51.006;4.630;2024-01-30T02:45:12;10.60;78.20
77741;DHT22;66919;51.006;4.630;2024-01-30T02:47:39;10.80;77.20
77741;DHT22;66919;51.006;4.630;2024-01-30T02:50:05;10.90;76.70
77741;DHT22;66919;51.006;4.630;2024-01-30T02:52:31;10.60;77.60
77741;DHT22;66919;51.006;4.630;2024-01-30T02:54:56;10.50;78.30
77741;DHT22;66919;51.006;4.630;2024-01-30T02:57:22;10.40;78.30
77741;DHT22;66919;51.006;4.630;2024-01-30T02:59:48;10.30;79.60
77741;DHT22;66919;51.006;4.630;2024-01-30T03:02:13;10.10;80.60
77741;DHT22;66919;51.006;4.630;2024-01-30T03:04:41;10.00;81.10
77741;DHT22;66919;51.006;4.630;2024-01-30T03:07:07;10.20;80.90
77741;DHT22;66919;51.006;4.630;2024-01-30T03:09:33;10.50;79.30
77741;DHT22;66919;51.006;4.630;2024-01-30T03:11:58;10.60;79.10
77741;DHT22;66919;51.006;4.630;2024-01-30T03:14:24;10.80;77.80
77741;DHT22;66919;51.006;4.630;2024-01-30T03:16:50;10.80;77.90
77741;DHT22;66919;51.006;4.630;2024-01-30T03:19:15;10.70;78.10
77741;DHT22;66919;51.006;4.630;2024-01-30T03:21:41;10.60;78.70
77741;DHT22;66919;51.006;4.630;2024-01-30T03:24:06;10.40;79.60
77741;DHT22;66919;51.006;4.630;2024-01-30T03:26:32;10.50;79.20
77741;DHT22;66919;51.006;4.630;2024-01-30T03:28:58;10.70;78.40
77741;DHT22;66919;51.006;4.630;2024-01-30T03:31:23;10.50;79.40
77741;DHT22;66919;51.006;4.630;2024-01-30T03:33:49;10.50;79.60
77741;DHT22;66919;51.006;4.630;2024-01-30T03:36:15;10.50;79.70
77741;DHT22;66919;51.006;4.630;2024-01-30T03:38:42;10.60;79.30
77741;DHT22;66919;51.006;4.630;2024-01-30T03:41:08;10.70;79.00
77741;DHT22;66919;51.006;4.630;2024-01-30T03:43:35;10.90;78.20
77741;DHT22;66919;51.006;4.630;2024-01-30T03:46:01;11.00;77.40
77741;DHT22;66919;51.006;4.630;2024-01-30T03:48:28;11.10;76.70
77741;DHT22;66919;51.006;4.630;2024-01-30T03:50:54;11.00;77.50
77741;DHT22;66919;51.006;4.630;2024-01-30T03:53:19;11.00;77.60
77741;DHT22;66919;51.006;4.630;2024-01-30T03:55:45;10.90;78.10
77741;DHT22;66919;51.006;4.630;2024-01-30T03:58:11;10.90;78.00
77741;DHT22;66919;51.006;4.630;2024-01-30T04:00:36;10.80;78.40
77741;DHT22;66919;51.006;4.630;2024-01-30T04:03:02;10.60;79.60
77741;DHT22;66919;51.006;4.630;2024-01-30T04:05:28;10.60;79.70
77741;DHT22;66919;51.006;4.630;2024-01-30T04:07:53;10.80;78.90
77741;DHT22;66919;51.006;4.630;2024-01-30T04:10:19;10.90;78.40
77741;DHT22;66919;51.006;4.630;2024-01-30T04:12:45;10.90;78.60
77741;DHT22;66919;51.006;4.630;2024-01-30T04:15:10;11.00;77.80
77741;DHT22;66919;51.006;4.630;2024-01-30T04:17:36;10.90;78.60
77741;DHT22;66919;51.006;4.630;2024-01-30T04:20:02;10.90;78.40
77741;DHT22;66919;51.006;4.630;2024-01-30T04:22:27;11.10;77.70
77741;DHT22;66919;51.006;4.630;2024-01-30T04:24:53;11.10;77.70
77741;DHT22;66919;51.006;4.630;2024-01-30T04:27:18;10.90;78.20
77741;DHT22;66919;51.006;4.630;2024-01-30T04:29:44;10.90;78.40
77741;DHT22;66919;51.006;4.630;2024-01-30T04:32:10;10.90;78.50
77741;DHT22;66919;51.006;4.630;2024-01-30T04:34:36;11.00;78.10
77741;DHT22;66919;51.006;4.630;2024-01-30T04:37:02;11.20;77.20
77741;DHT22;66919;51.006;4.630;2024-01-30T04:39:28;11.10;77.70
77741;DHT22;66919;51.006;4.630;2024-01-30T04:41:54;11.10;78.50
77741;DHT22;66919;51.006;4.630;2024-01-30T04:44:19;11.00;78.10
77741;DHT22;66919;51.006;4.630;2024-01-30T04:46:45;11.00;78.00
77741;DHT22;66919;51.006;4.630;2024-01-30T04:49:11;11.00;78.30
77741;DHT22;66919;51.006;4.630;2024-01-30T04:51:36;11.10;77.50
77741;DHT22;66919;51.006;4.630;2024-01-30T04:54:02;11.30;77.10
77741;DHT22;66919;51.006;4.630;2024-01-30T04:56:28;11.40;76.40
77741;DHT22;66919;51.006;4.630;2024-01-30T04:58:53;11.30;76.90
77741;DHT22;66919;51.006;4.630;2024-01-30T05:01:19;11.20;77.30
77741;DHT22;66919;51.006;4.630;2024-01-30T05:03:44;11.30;77.10
77741;DHT22;66919;51.006;4.630;2024-01-30T05:06:10;11.30;77.00
77741;DHT22;66919;51.006;4.630;2024-01-30T05:08:36;11.30;76.70
77741;DHT22;66919;51.006;4.630;2024-01-30T05:11:05;11.40;76.00
77741;DHT22;66919;51.006;4.630;2024-01-30T05:13:31;11.20;77.20
77741;DHT22;66919;51.006;4.630;2024-01-30T05:15:57;11.00;78.40
77741;DHT22;66919;51.006;4.630;2024-01-30T05:18:22;11.00;78.60
77741;DHT22;66919;51.006;4.630;2024-01-30T05:20:50;10.90;78.80
77741;DHT22;66919;51.006;4.630;2024-01-30T05:23:15;10.90;79.20
77741;DHT22;66919;51.006;4.630;2024-01-30T05:25:41;10.90;79.00
77741;DHT22;66919;51.006;4.630;2024-01-30T05:28:07;11.00;78.20
77741;DHT22;66919;51.006;4.630;2024-01-30T05:30:32;11.10;78.10
77741;DHT22;66919;51.006;4.630;2024-01-30T05:32:58;11.00;78.50
77741;DHT22;66919;51.006;4.630;2024-01-30T05:35:24;11.00;78.30
77741;DHT22;66919;51.006;4.630;2024-01-30T05:37:49;11.00;78.40
77741;DHT22;66919;51.006;4.630;2024-01-30T05:40:15;11.00;78.60
77741;DHT22;66919;51.006;4.630;2024-01-30T05:42:42;10.90;78.80
77741;DHT22;66919;51.006;4.630;2024-01-30T05:45:07;11.00;78.50
77741;DHT22;66919;51.006;4.630;2024-01-30T05:47:34;10.90;78.80
77741;DHT22;66919;51.006;4.630;2024-01-30T05:50:00;11.10;78.10
77741;DHT22;66919;51.006;4.630;2024-01-30T05:52:25;11.00;78.40
77741;DHT22;66919;51.006;4.630;2024-01-30T05:54:51;10.80;79.00
77741;DHT22;66919;51.006;4.630;2024-01-30T05:57:17;10.80;79.30
77741;DHT22;66919;51.006;4.630;2024-01-30T05:59:43;10.90;79.20
77741;DHT22;66919;51.006;4.630;2024-01-30T06:02:10;10.90;79.20
77741;DHT22;66919;51.006;4.630;2024-01-30T06:04:36;11.00;79.20
77741;DHT22;66919;51.006;4.630;2024-01-30T06:07:02;11.10;78.10
77741;DHT22;66919;51.006;4.630;2024-01-30T06:09:28;11.20;77.60
77741;DHT22;66919;51.006;4.630;2024-01-30T06:11:54;11.30;77.30
77741;DHT22;66919;51.006;4.630;2024-01-30T06:14:20;11.30;77.40
77741;DHT22;66919;51.006;4.630;2024-01-30T06:16:46;11.20;77.50
77741;DHT22;66919;51.006;4.630;2024-01-30T06:19:11;11.20;77.60
77741;DHT22;66919;51.006;4.630;2024-01-30T06:21:37;11.10;78.70
77741;DHT22;66919;51.006;4.630;2024-01-30T06:24:04;11.10;78.20
77741;DHT22;66919;51.006;4.630;2024-01-30T06:26:30;11.10;78.10
77741;DHT22;66919;51.006;4.630;2024-01-30T06:28:55;11.00;78.40
77741;DHT22;66919;51.006;4.630;2024-01-30T06:31:21;10.90;78.80
77741;DHT22;66919;51.006;4.630;2024-01-30T06:33:47;10.90;79.00
77741;DHT22;66919;51.006;4.630;2024-01-30T06:36:13;11.00;78.40
77741;DHT22;66919;51.006;4.630;2024-01-30T06:38:39;11.00;78.60
77741;DHT22;66919;51.006;4.630;2024-01-30T06:41:05;11.10;78.40
77741;DHT22;66919;51.006;4.630;2024-01-30T06:43:32;11.10;78.60
77741;DHT22;66919;51.006;4.630;2024-01-30T06:45:57;11.00;78.60
77741;DHT22;66919;51.006;4.630;2024-01-30T06:48:23;11.10;78.50
77741;DHT22;66919;51.006;4.630;2024-01-30T06:50:49;11.40;77.30
77741;DHT22;66919;51.006;4.630;2024-01-30T06:53:16;11.50;76.40
77741;DHT22;66919;51.006;4.630;2024-01-30T06:55:41;11.60;76.10
77741;DHT22;66919;51.006;4.630;2024-01-30T06:58:07;11.60;76.00
77741;DHT22;66919;51.006;4.630;2024-01-30T07:00:32;11.70;76.20
77741;DHT22;66919;51.006;4.630;2024-01-30T07:02:58;11.90;75.20
77741;DHT22;66919;51.006;4.630;2024-01-30T07:05:24;12.20;74.90
77741;DHT22;66919;51.006;4.630;2024-01-30T07:07:49;12.40;74.40
77741;DHT22;66919;51.006;4.630;2024-01-30T07:10:15;12.70;72.40
77741;DHT22;66919;51.006;4.630;2024-01-30T07:12:41;13.10;71.10
77741;DHT22;66919;51.006;4.630;2024-01-30T07:15:06;13.20;70.50
77741;DHT22;66919;51.006;4.630;2024-01-30T07:17:35;13.40;69.40
77741;DHT22;66919;51.006;4.630;2024-01-30T07:20:01;13.40;69.00
77741;DHT22;66919;51.006;4.630;2024-01-30T07:22:29;13.40;69.00
77741;DHT22;66919;51.006;4.630;2024-01-30T07:24:55;13.40;69.80
77741;DHT22;66919;51.006;4.630;2024-01-30T07:27:21;13.50;68.80
77741;DHT22;66919;51.006;4.630;2024-01-30T07:29:47;13.20;70.20
77741;DHT22;66919;51.006;4.630;2024-01-30T07:32:12;13.20;70.30
77741;DHT22;66919;51.006;4.630;2024-01-30T07:34:38;13.20;69.80
77741;DHT22;66919;51.006;4.630;2024-01-30T07:37:04;13.10;70.70
77741;DHT22;66919;51.006;4.630;2024-01-30T07:39:29;13.10;70.40
77741;DHT22;66919;51.006;4.630;2024-01-30T07:41:55;13.30;69.70
77741;DHT22;66919;51.006;4.630;2024-01-30T07:44:21;13.40;68.90
77741;DHT22;66919;51.006;4.630;2024-01-30T07:46:48;12.90;71.20
77741;DHT22;66919;51.006;4.630;2024-01-30T07:49:14;12.90;71.10
77741;DHT22;66919;51.006;4.630;2024-01-30T07:51:40;13.00;71.00
77741;DHT22;66919;51.006;4.630;2024-01-30T07:54:05;13.20;70.60
77741;DHT22;66919;51.006;4.630;2024-01-30T07:56:31;13.00;71.10
77741;DHT22;66919;51.006;4.630;2024-01-30T07:58:57;13.20;71.00
77741;DHT22;66919;51.006;4.630;2024-01-30T08:01:22;13.00;71.10
77741;DHT22;66919;51.006;4.630;2024-01-30T08:03:48;12.80;72.10
77741;DHT22;66919;51.006;4.630;2024-01-30T08:06:13;12.90;71.70
77741;DHT22;66919;51.006;4.630;2024-01-30T08:08:39;13.10;70.90
77741;DHT22;66919;51.006;4.630;2024-01-30T08:11:05;13.20;70.90
77741;DHT22;66919;51.006;4.630;2024-01-30T08:13:30;13.30;70.40
77741;DHT22;66919;51.006;4.630;2024-01-30T08:15:56;13.10;71.10
77741;DHT22;66919;51.006;4.630;2024-01-30T08:18:22;13.00;71.90
77741;DHT22;66919;51.006;4.630;2024-01-30T08:20:47;12.80;72.90
77741;DHT22;66919;51.006;4.630;2024-01-30T08:23:14;12.80;72.50
77741;DHT22;66919;51.006;4.630;2024-01-30T08:25:40;13.00;72.30
77741;DHT22;66919;51.006;4.630;2024-01-30T08:28:05;13.30;71.20
77741;DHT22;66919;51.006;4.630;2024-01-30T08:30:32;13.20;71.40
77741;DHT22;66919;51.006;4.630;2024-01-30T08:32:58;13.00;72.10
77741;DHT22;66919;51.006;4.630;2024-01-30T08:35:24;13.00;73.10
77741;DHT22;66919;51.006;4.630;2024-01-30T08:37:49;13.20;72.70
77741;DHT22;66919;51.006;4.630;2024-01-30T08:40:15;13.10;72.70
77741;DHT22;66919;51.006;4.630;2024-01-30T08:42:41;13.40;72.40
77741;DHT22;66919;51.006;4.630;2024-01-30T08:45:06;13.40;72.20
77741;DHT22;66919;51.006;4.630;2024-01-30T08:47:32;13.30;72.70
77741;DHT22;66919;51.006;4.630;2024-01-30T08:49:58;13.50;72.00
77741;DHT22;66919;51.006;4.630;2024-01-30T08:52:24;13.70;71.20
77741;DHT22;66919;51.006;4.630;2024-01-30T08:54:51;13.80;70.80
77741;DHT22;66919;51.006;4.630;2024-01-30T08:57:16;14.00;69.90
77741;DHT22;66919;51.006;4.630;2024-01-30T08:59:42;14.10;69.90
77741;DHT22;66919;51.006;4.630;2024-01-30T09:02:10;14.10;70.00
77741;DHT22;66919;51.006;4.630;2024-01-30T09:04:37;14.00;70.50
77741;DHT22;66919;51.006;4.630;2024-01-30T09:07:03;13.80;71.20
77741;DHT22;66919;51.006;4.630;2024-01-30T09:09:31;13.70;71.40
77741;DHT22;66919;51.006;4.630;2024-01-30T09:11:56;13.80;71.50
77741;DHT22;66919;51.006;4.630;2024-01-30T09:14:27;14.00;70.50
77741;DHT22;66919;51.006;4.630;2024-01-30T09:16:52;13.80;71.10
77741;DHT22;66919;51.006;4.630;2024-01-30T09:19:18;13.70;71.40
77741;DHT22;66919;51.006;4.630;2024-01-30T09:21:44;13.60;71.80
77741;DHT22;66919;51.006;4.630;2024-01-30T09:24:09;13.60;72.40
77741;DHT22;66919;51.006;4.630;2024-01-30T09:26:37;13.50;72.50
77741;DHT22;66919;51.006;4.630;2024-01-30T09:29:02;13.50;72.70
77741;DHT22;66919;51.006;4.630;2024-01-30T09:31:28;13.40;73.60
77741;DHT22;66919;51.006;4.630;2024-01-30T09:33:54;13.50;72.70
77741;DHT22;66919;51.006;4.630;2024-01-30T09:36:20;13.50;72.80
77741;DHT22;66919;51.006;4.630;2024-01-30T09:38:45;13.50;72.80
77741;DHT22;66919;51.006;4.630;2024-01-30T09:41:11;13.60;72.40
77741;DHT22;66919;51.006;4.630;2024-01-30T09:43:38;13.40;73.00
77741;DHT22;66919;51.006;4.630;2024-01-30T09:46:11;13.40;73.60
77741;DHT22;66919;51.006;4.630;2024-01-30T09:48:39;13.40;73.50
77741;DHT22;66919;51.006;4.630;2024-01-30T09:51:07;13.30;74.20
77741;DHT22;66919;51.006;4.630;2024-01-30T09:53:33;13.30;74.70
77741;DHT22;66919;51.006;4.630;2024-01-30T09:55:59;13.20;75.10
77741;DHT22;66919;51.006;4.630;2024-01-30T09:58:25;13.30;74.80
77741;DHT22;66919;51.006;4.630;2024-01-30T10:00:51;13.20;75.50
77741;DHT22;66919;51.006;4.630;2024-01-30T10:03:18;13.30;75.30
77741;DHT22;66919;51.006;4.630;2024-01-30T10:05:51;13.20;75.50
77741;DHT22;66919;51.006;4.630;2024-01-30T10:08:19;13.00;76.30
77741;DHT22;66919;51.006;4.630;2024-01-30T10:10:47;12.90;76.90
77741;DHT22;66919;51.006;4.630;2024-01-30T10:13:12;13.00;76.90
77741;DHT22;66919;51.006;4.630;2024-01-30T10:15:38;13.00;76.80
77741;DHT22;66919;51.006;4.630;2024-01-30T10:18:05;13.00;76.20
77741;DHT22;66919;51.006;4.630;2024-01-30T10:20:32;13.00;75.70
77741;DHT22;66919;51.006;4.630;2024-01-30T10:22:58;12.90;76.70
77741;DHT22;66919;51.006;4.630;2024-01-30T10:25:25;12.80;77.10
77741;DHT22;66919;51.006;4.630;2024-01-30T10:27:54;12.90;77.00
77741;DHT22;66919;51.006;4.630;2024-01-30T10:30:21;12.90;76.20
77741;DHT22;66919;51.006;4.630;2024-01-30T10:32:47;12.90;76.60
77741;DHT22;66919;51.006;4.630;2024-01-30T10:35:13;12.80;76.40
77741;DHT22;66919;51.006;4.630;2024-01-30T10:37:39;12.70;77.30
77741;DHT22;66919;51.006;4.630;2024-01-30T10:40:05;12.70;77.60
77741;DHT22;66919;51.006;4.630;2024-01-30T10:42:36;12.70;77.70
77741;DHT22;66919;51.006;4.630;2024-01-30T10:45:12;12.50;78.10
77741;DHT22;66919;51.006;4.630;2024-01-30T10:47:40;12.40;78.60
77741;DHT22;66919;51.006;4.630;2024-01-30T10:50:08;12.50;78.50
77741;DHT22;66919;51.006;4.630;2024-01-30T10:52:34;12.50;78.80
77741;DHT22;66919;51.006;4.630;2024-01-30T10:55:00;12.50;78.40
77741;DHT22;66919;51.006;4.630;2024-01-30T10:57:27;12.40;79.30
77741;DHT22;66919;51.006;4.630;2024-01-30T10:59:58;12.40;78.70
77741;DHT22;66919;51.006;4.630;2024-01-30T11:02:24;12.60;78.20
77741;DHT22;66919;51.006;4.630;2024-01-30T11:04:58;12.60;77.70
77741;DHT22;66919;51.006;4.630;2024-01-30T11:07:29;12.60;77.80
77741;DHT22;66919;51.006;4.630;2024-01-30T11:12:27;13.10;73.10
77741;DHT22;66919;51.006;4.630;2024-01-30T11:17:51;12.80;70.50
77741;DHT22;66919;51.006;4.630;2024-01-30T11:20:29;12.80;70.00
77741;DHT22;66919;51.006;4.630;2024-01-30T11:22:57;12.70;69.50
77741;DHT22;66919;51.006;4.630;2024-01-30T11:25:24;12.60;68.30
77741;DHT22;66919;51.006;4.630;2024-01-30T11:27:53;12.60;69.10
77741;DHT22;66919;51.006;4.630;2024-01-30T11:30:32;12.50;68.70
77741;DHT22;66919;51.006;4.630;2024-01-30T11:35:44;12.40;69.00
77741;DHT22;66919;51.006;4.630;2024-01-30T11:38:14;12.50;68.20
77741;DHT22;66919;51.006;4.630;2024-01-30T11:40:40;12.40;69.10
77741;DHT22;66919;51.006;4.630;2024-01-30T11:43:08;12.50;68.20
77741;DHT22;66919;51.006;4.630;2024-01-30T11:45:35;12.60;68.30
77741;DHT22;66919;51.006;4.630;2024-01-30T11:48:02;12.70;68.50
77741;DHT22;66919;51.006;4.630;2024-01-30T11:50:35;12.70;68.70
77741;DHT22;66919;51.006;4.630;2024-01-30T11:53:01;12.60;67.90
77741;DHT22;66919;51.006;4.630;2024-01-30T11:55:28;12.40;66.20
77741;DHT22;66919;51.006;4.630;2024-01-30T11:57:57;12.30;65.00
77741;DHT22;66919;51.006;4.630;2024-01-30T12:00:24;12.40;64.40
77741;DHT22;66919;51.006;4.630;2024-01-30T12:02:51;12.50;64.70
77741;DHT22;66919;51.006;4.630;2024-01-30T12:05:19;12.60;62.90
77741;DHT22;66919;51.006;4.630;2024-01-30T12:07:45;12.50;61.80
77741;DHT22;66919;51.006;4.630;2024-01-30T12:10:13;12.20;62.80
77741;DHT22;66919;51.006;4.630;2024-01-30T12:12:39;12.40;62.80
77741;DHT22;66919;51.006;4.630;2024-01-30T12:15:07;12.70;62.20
77741;DHT22;66919;51.006;4.630;2024-01-30T12:17:33;13.60;59.40
77741;DHT22;66919;51.006;4.630;2024-01-30T12:22:35;14.40;57.20
77741;DHT22;66919;51.006;4.630;2024-01-30T12:25:01;15.50;54.60
77741;DHT22;66919;51.006;4.630;2024-01-30T12:27:27;16.20;49.50
77741;DHT22;66919;51.006;4.630;2024-01-30T12:29:57;16.30;49.70
77741;DHT22;66919;51.006;4.630;2024-01-30T12:32:23;16.80;47.70
77741;DHT22;66919;51.006;4.630;2024-01-30T12:34:49;16.40;48.60
77741;DHT22;66919;51.006;4.630;2024-01-30T12:37:15;16.70;48.20
77741;DHT22;66919;51.006;4.630;2024-01-30T12:39:45;17.20;47.00
77741;DHT22;66919;51.006;4.630;2024-01-30T12:42:11;17.30;47.30
77741;DHT22;66919;51.006;4.630;2024-01-30T12:44:36;17.60;46.40
77741;DHT22;66919;51.006;4.630;2024-01-30T12:47:08;17.80;45.90
77741;DHT22;66919;51.006;4.630;2024-01-30T12:49:34;17.90;45.50
77741;DHT22;66919;51.006;4.630;2024-01-30T12:51:59;17.50;45.90
77741;DHT22;66919;51.006;4.630;2024-01-30T12:54:25;16.50;49.10
77741;DHT22;66919;51.006;4.630;2024-01-30T12:56:51;16.30;48.80
77741;DHT22;66919;51.006;4.630;2024-01-30T12:59:16;15.20;51.40
77741;DHT22;66919;51.006;4.630;2024-01-30T13:01:42;14.40;53.90
77741;DHT22;66919;51.006;4.630;2024-01-30T13:04:07;13.80;55.30
77741;DHT22;66919;51.006;4.630;2024-01-30T13:06:33;13.90;55.40
77741;DHT22;66919;51.006;4.630;2024-01-30T13:08:59;14.90;53.00
77741;DHT22;66919;51.006;4.630;2024-01-30T13:11:24;16.20;49.50
77741;DHT22;66919;51.006;4.630;2024-01-30T13:13:51;17.10;46.80
77741;DHT22;66919;51.006;4.630;2024-01-30T13:16:17;17.80;45.70
77741;DHT22;66919;51.006;4.630;2024-01-30T13:18:43;17.50;45.00
77741;DHT22;66919;51.006;4.630;2024-01-30T13:21:09;17.40;45.50
77741;DHT22;66919;51.006;4.630;2024-01-30T13:23:35;15.50;48.80
77741;DHT22;66919;51.006;4.630;2024-01-30T13:26:01;14.70;51.70
77741;DHT22;66919;51.006;4.630;2024-01-30T13:28:26;14.30;53.40
77741;DHT22;66919;51.006;4.630;2024-01-30T13:30:52;13.70;54.70
77741;DHT22;66919;51.006;4.630;2024-01-30T13:33:18;13.20;56.00
77741;DHT22;66919;51.006;4.630;2024-01-30T13:35:44;12.80;57.90
77741;DHT22;66919;51.006;4.630;2024-01-30T13:38:09;13.00;57.40
77741;DHT22;66919;51.006;4.630;2024-01-30T13:40:35;13.10;57.40
77741;DHT22;66919;51.006;4.630;2024-01-30T13:43:01;13.20;58.10
77741;DHT22;66919;51.006;4.630;2024-01-30T13:45:27;13.30;58.50
77741;DHT22;66919;51.006;4.630;2024-01-30T13:47:54;13.30;58.20
77741;DHT22;66919;51.006;4.630;2024-01-30T13:50:19;13.50;58.70
77741;DHT22;66919;51.006;4.630;2024-01-30T13:52:45;13.50;57.80
77741;DHT22;66919;51.006;4.630;2024-01-30T13:55:11;13.40;57.90
77741;DHT22;66919;51.006;4.630;2024-01-30T13:57:37;13.30;58.40
77741;DHT22;66919;51.006;4.630;2024-01-30T14:00:04;13.10;59.30
77741;DHT22;66919;51.006;4.630;2024-01-30T14:02:32;13.00;60.10
77741;DHT22;66919;51.006;4.630;2024-01-30T14:04:58;12.90;60.00
77741;DHT22;66919;51.006;4.630;2024-01-30T14:07:24;12.80;59.80
77741;DHT22;66919;51.006;4.630;2024-01-30T14:09:49;12.70;60.90
77741;DHT22;66919;51.006;4.630;2024-01-30T14:12:16;12.70;60.60
77741;DHT22;66919;51.006;4.630;2024-01-30T14:14:42;12.50;61.30
77741;DHT22;66919;51.006;4.630;2024-01-30T14:17:07;12.50;62.30
77741;DHT22;66919;51.006;4.630;2024-01-30T14:19:34;12.50;62.70
77741;DHT22;66919;51.006;4.630;2024-01-30T14:22:01;12.50;63.10
77741;DHT22;66919;51.006;4.630;2024-01-30T14:24:26;12.30;63.70
77741;DHT22;66919;51.006;4.630;2024-01-30T14:26:52;12.30;64.40
77741;DHT22;66919;51.006;4.630;2024-01-30T14:29:18;12.40;63.80
77741;DHT22;66919;51.006;4.630;2024-01-30T14:31:43;12.30;64.00
77741;DHT22;66919;51.006;4.630;2024-01-30T14:34:09;12.20;64.00
77741;DHT22;66919;51.006;4.630;2024-01-30T14:36:37;12.10;64.60
77741;DHT22;66919;51.006;4.630;2024-01-30T14:39:02;11.90;65.00
77741;DHT22;66919;51.006;4.630;2024-01-30T14:41:29;11.90;65.40
77741;DHT22;66919;51.006;4.630;2024-01-30T14:43:55;11.90;65.50
77741;DHT22;66919;51.006;4.630;2024-01-30T14:46:21;11.90;65.30
77741;DHT22;66919;51.006;4.630;2024-01-30T14:48:47;11.80;65.40
77741;DHT22;66919;51.006;4.630;2024-01-30T14:51:12;11.70;66.40
77741;DHT22;66919;51.006;4.630;2024-01-30T14:53:39;11.60;66.90
77741;DHT22;66919;51.006;4.630;2024-01-30T14:56:05;11.60;66.80
77741;DHT22;66919;51.006;4.630;2024-01-30T14:58:31;11.60;67.20
77741;DHT22;66919;51.006;4.630;2024-01-30T15:00:57;11.50;67.30
77741;DHT22;66919;51.006;4.630;2024-01-30T15:03:23;11.50;67.70
77741;DHT22;66919;51.006;4.630;2024-01-30T15:05:48;11.50;67.70
77741;DHT22;66919;51.006;4.630;2024-01-30T15:08:14;11.50;67.80
77741;DHT22;66919;51.006;4.630;2024-01-30T15:10:40;11.40;67.60
77741;DHT22;66919;51.006;4.630;2024-01-30T15:13:05;11.50;67.10
77741;DHT22;66919;51.006;4.630;2024-01-30T15:15:31;11.40;67.50
77741;DHT22;66919;51.006;4.630;2024-01-30T15:17:57;11.50;67.60
77741;DHT22;66919;51.006;4.630;2024-01-30T15:20:23;11.50;66.80
77741;DHT22;66919;51.006;4.630;2024-01-30T15:22:49;11.50;66.70
77741;DHT22;66919;51.006;4.630;2024-01-30T15:25:14;11.40;67.20
77741;DHT22;66919;51.006;4.630;2024-01-30T15:27:40;11.20;67.80
77741;DHT22;66919;51.006;4.630;2024-01-30T15:30:07;11.30;67.40
77741;DHT22;66919;51.006;4.630;2024-01-30T15:32:33;11.10;68.40
77741;DHT22;66919;51.006;4.630;2024-01-30T15:35:00;11.00;69.00